Time;durP1;ratioP1;P1;durP2;ratioP2;P2;SDS_P1;SDS_P2;PMS_P1;PMS_P2;Temp;Humidity;BMP_temperature;BMP_pressure;BME280_temperature;BME280_humidity;BME280_pressure;Samples;Min_cycle;Max_cycle;Signal;HPM_P1;HPM_P2
2021/09/14 00:02:11;;;;;;;4.77;2.60;;;;;;;12.37;93.15;100655.75;4972374;28;20053;-62
2021/09/14 00:04:56;;;;;;;4.30;2.47;;;;;;;12.36;93.29;100660.31;4971849;28;20082;-61
2021/09/14 00:07:42;;;;;;;3.80;2.38;;;;;;;12.36;92.80;100657.63;4971732;28;20078;-61
2021/09/14 00:10:27;;;;;;;;;;;;;;;12.36;93.02;100656.75;4972540;28;20136;-62
2021/09/14 00:13:13;;;;;;;3.97;2.53;;;;;;;12.35;92.87;100650.53;4972227;28;20392;-61
2021/09/14 00:15:58;;;;;;;4.30;2.75;;;;;;;12.37;93.04;100650.38;4971469;28;20416;-64
2021/09/14 00:18:43;;;;;;;11.40;5.93;;;;;;;12.41;93.99;100651.78;4972277;28;20058;-63
2021/09/14 00:21:29;;;;;;;11.35;7.20;;;;;;;12.44;94.33;100655.03;4971974;28;20162;-60
2021/09/14 00:24:15;;;;;;;10.90;7.68;;;;;;;12.47;94.63;100649.38;4972344;28;20078;-60
2021/09/14 00:27:00;;;;;;;11.48;7.05;;;;;;;12.51;94.07;100653.44;4971667;28;20121;-62
2021/09/14 00:29:45;;;;;;;10.50;6.50;;;;;;;12.53;94.05;100646.06;4971744;28;20062;-58
2021/09/14 00:32:30;;;;;;;10.27;6.80;;;;;;;12.54;94.18;100639.69;4971886;28;20476;-62
2021/09/14 00:35:15;;;;;;;12.50;5.40;;;;;;;12.58;94.20;100648.34;4971992;28;20057;-61
2021/09/14 00:38:00;;;;;;;10.43;5.68;;;;;;;12.57;93.97;100636.72;4971493;28;20077;-62
2021/09/14 00:40:46;;;;;;;10.52;6.35;;;;;;;12.54;93.64;100638.84;4973559;28;20117;-59
2021/09/14 00:43:31;;;;;;;12.25;6.70;;;;;;;12.50;94.06;100632.91;4975607;28;20053;-59
2021/09/14 00:46:16;;;;;;;13.13;6.22;;;;;;;12.46;94.22;100636.91;4975342;28;20110;-61
2021/09/14 00:49:02;;;;;;;14.18;6.75;;;;;;;12.41;94.29;100625.72;4975457;28;20133;-63
2021/09/14 00:51:47;;;;;;;10.45;6.10;;;;;;;12.40;94.28;100628.56;4975686;28;20058;-62
2021/09/14 00:54:36;;;;;;;7.70;4.75;;;;;;;12.41;94.25;100633.78;4975525;28;20413;-64
2021/09/14 00:57:22;;;;;;;9.25;4.38;;;;;;;12.43;94.29;100634.50;4974812;28;20066;-61
2021/09/14 01:00:08;;;;;;;9.02;5.13;;;;;;;12.40;93.93;100624.00;4975263;28;20069;-61
2021/09/14 01:02:53;;;;;;;9.77;5.38;;;;;;;12.40;94.06;100618.63;4975770;28;20136;-61
2021/09/14 01:05:38;;;;;;;7.53;4.25;;;;;;;12.38;93.89;100619.78;4975006;28;20516;-60
2021/09/14 01:08:24;;;;;;;8.77;5.10;;;;;;;12.40;94.21;100623.16;4975157;28;20061;-61
2021/09/14 01:11:09;;;;;;;8.98;5.05;;;;;;;12.40;94.16;100618.63;4975275;28;20062;-61
2021/09/14 01:14:06;;;;;;;8.88;5.15;;;;;;;12.39;93.87;100618.78;4974702;28;20516;-59
2021/09/14 01:16:52;;;;;;;7.55;5.30;;;;;;;12.41;93.92;100627.56;4975075;28;20062;-62
2021/09/14 01:19:37;;;;;;;8.98;5.32;;;;;;;12.44;93.95;100625.44;4974674;28;20171;-61
2021/09/14 01:22:26;;;;;;;8.98;4.97;;;;;;;12.47;94.15;100618.91;4974904;28;20054;-61
2021/09/14 01:25:16;;;;;;;8.38;5.53;;;;;;;12.47;93.81;100619.75;4974694;28;20421;-61
2021/09/14 01:28:02;;;;;;;8.98;5.45;;;;;;;12.46;93.85;100620.75;4974667;28;20131;-62
2021/09/14 01:30:47;;;;;;;8.82;5.00;;;;;;;12.46;93.80;100627.97;4974680;28;20057;-60
2021/09/14 01:33:32;;;;;;;11.18;5.10;;;;;;;12.50;93.94;100624.84;4974397;28;20068;-60
2021/09/14 01:36:17;;;;;;;8.68;5.30;;;;;;;12.52;93.84;100628.22;4974284;28;20066;-62
2021/09/14 01:39:04;;;;;;;11.02;5.80;;;;;;;12.48;93.42;100616.06;4975068;28;20124;-63
2021/09/14 01:41:49;;;;;;;10.38;5.35;;;;;;;12.47;93.76;100625.13;4974449;28;20062;-62
2021/09/14 01:44:34;;;;;;;12.10;5.47;;;;;;;12.50;93.79;100618.59;4974677;28;20549;-60
2021/09/14 01:47:19;;;;;;;7.53;4.90;;;;;;;12.51;93.61;100626.53;4974450;28;20057;-61
2021/09/14 01:50:05;;;;;;;8.50;5.38;;;;;;;12.51;93.63;100617.59;4974729;28;20121;-60
2021/09/14 01:52:49;;;;;;;6.18;4.35;;;;;;;12.53;93.50;100618.28;4973481;28;20069;-60
2021/09/14 01:55:36;;;;;;;10.65;5.10;;;;;;;12.52;93.75;100622.00;4974268;28;20524;-60
2021/09/14 01:58:21;;;;;;;8.50;5.68;;;;;;;12.50;93.68;100616.75;4974394;28;20061;-61
2021/09/14 02:01:11;;;;;;;8.45;4.70;;;;;;;12.48;93.98;100612.53;4974908;28;20549;-61
2021/09/14 02:04:01;;;;;;;9.27;4.70;;;;;;;12.43;94.09;100604.91;4974398;28;20062;-60
2021/09/14 02:06:57;;;;;;;9.05;5.53;;;;;;;12.38;94.14;100614.41;4973720;28;20069;-61
2021/09/14 02:38:19;;;;;;;7.70;4.03;;;;;;;11.40;97.24;100613.66;4973494;28;20082;-63
2021/09/14 02:58:45;;;;;;;5.85;3.13;;;;;;;11.41;97.36;100598.38;4973290;28;20500;-61
2021/09/14 03:01:30;;;;;;;5.53;3.45;;;;;;;11.38;97.28;100604.88;4973405;28;20061;-63
2021/09/14 03:04:16;;;;;;;6.63;3.25;;;;;;;11.29;97.00;100603.03;4973119;28;20422;-58
2021/09/14 03:07:01;;;;;;;8.63;3.85;;;;;;;11.29;97.29;100600.34;4971795;28;20054;-59
2021/09/14 03:09:46;;;;;;;5.22;3.63;;;;;;;11.29;97.24;100602.19;4973876;28;20508;-58
2021/09/14 03:12:31;;;;;;;5.03;3.22;;;;;;;11.22;97.35;100601.03;4972902;28;20100;-61
2021/09/14 03:15:18;;;;;;;4.15;2.67;;;;;;;11.18;97.27;100588.88;4973122;28;20064;-56
2021/09/14 03:18:03;;;;;;;5.00;2.92;;;;;;;11.13;97.31;100592.00;4972884;28;20201;-57
2021/09/14 03:20:48;;;;;;;6.75;3.65;;;;;;;11.12;96.80;100584.88;4972943;28;20101;-56
2021/09/14 03:23:34;;;;;;;6.32;3.40;;;;;;;11.07;97.66;100584.47;4972896;28;20512;-58
2021/09/14 03:26:19;;;;;;;5.57;3.60;;;;;;;11.01;97.56;100590.38;4972241;28;20065;-58
2021/09/14 03:29:03;;;;;;;5.82;3.63;;;;;;;10.95;97.24;100588.25;4973012;28;20085;-58
2021/09/14 03:31:49;;;;;;;5.18;3.25;;;;;;;10.90;97.65;100585.16;4972777;28;20066;-54
2021/09/14 03:34:35;;;;;;;5.90;3.28;;;;;;;10.82;97.55;100586.69;4972797;28;20053;-59
2021/09/14 03:37:19;;;;;;;5.63;3.00;;;;;;;10.74;97.78;100577.59;4972292;28;20628;-58
2021/09/14 03:40:05;;;;;;;6.25;3.38;;;;;;;10.72;98.09;100579.59;4972603;28;20058;-57
2021/09/14 03:42:50;;;;;;;5.80;3.65;;;;;;;10.70;98.14;100571.66;4972495;28;20429;-57
2021/09/14 03:45:35;;;;;;;6.63;2.75;;;;;;;10.64;97.78;100572.19;4972521;28;20058;-59
2021/09/14 03:48:22;;;;;;;5.47;2.97;;;;;;;10.58;97.70;100574.59;4972598;28;20062;-56
2021/09/14 03:51:07;;;;;;;4.35;2.83;;;;;;;10.52;97.86;100576.81;5036291;23;20049;-62
2021/09/14 03:53:52;;;;;;;4.35;3.08;;;;;;;10.42;97.83;100567.06;5014717;28;20052;-64
2021/09/14 03:56:37;;;;;;;5.85;3.20;;;;;;;10.37;97.84;100567.47;5011227;28;20061;-61
2021/09/14 03:59:22;;;;;;;4.40;2.67;;;;;;;10.33;97.89;100567.88;5010961;28;20064;-63
2021/09/14 04:02:15;;;;;;;5.70;2.75;;;;;;;10.33;98.19;100567.88;5011650;28;20165;-63
2021/09/14 04:05:22;;;;;;;6.22;3.58;;;;;;;10.36;98.09;100556.84;5011171;28;20052;-63
2021/09/14 04:11:10;;;;;;;6.45;3.33;;;;;;;10.31;98.30;100565.31;5011230;28;20084;-62
2021/09/14 04:13:55;;;;;;;4.63;2.90;;;;;;;10.28;97.93;100568.25;5010626;28;20707;-62
2021/09/14 04:16:40;;;;;;;4.80;3.03;;;;;;;10.14;97.84;100558.69;5014015;28;20187;-63
2021/09/14 04:19:26;;;;;;;6.45;3.38;;;;;;;10.07;97.92;100564.75;5014877;28;20064;-63
2021/09/14 04:22:13;;;;;;;5.93;2.95;;;;;;;9.98;98.26;100566.38;5014964;28;20108;-63
2021/09/14 04:24:58;;;;;;;5.40;3.03;;;;;;;9.95;98.07;100564.84;5015005;28;20068;-63
2021/09/14 04:27:43;;;;;;;5.43;3.35;;;;;;;10.02;98.29;100557.09;5014603;28;20060;-62
2021/09/14 04:30:28;;;;;;;4.88;2.45;;;;;;;9.94;98.42;100559.56;5014848;28;20096;-61
2021/09/14 04:33:13;;;;;;;5.32;2.50;;;;;;;9.90;98.05;100561.69;5014559;28;20061;-62
2021/09/14 04:35:59;;;;;;;6.33;3.97;;;;;;;9.83;98.14;100563.22;5014849;28;20521;-63
2021/09/14 04:38:45;;;;;;;5.47;2.38;;;;;;;9.77;98.09;100555.69;5015296;28;20292;-62
2021/09/14 04:41:30;;;;;;;4.93;2.95;;;;;;;9.77;98.30;100557.50;5014609;28;20060;-62
2021/09/14 04:44:15;;;;;;;4.70;2.80;;;;;;;9.75;98.18;100564.84;5014430;28;20589;-62
2021/09/14 04:47:00;;;;;;;6.45;3.20;;;;;;;9.74;98.25;100561.31;5014236;28;20626;-61
2021/09/14 04:49:45;;;;;;;5.47;3.58;;;;;;;9.73;97.79;100561.44;5014805;28;20103;-62
2021/09/14 04:52:30;;;;;;;4.53;2.70;;;;;;;9.69;98.05;100566.19;5014280;28;20061;-63
2021/09/14 04:55:16;;;;;;;5.38;3.10;;;;;;;9.70;98.20;100559.84;5014625;28;20451;-62
2021/09/14 04:58:01;;;;;;;4.20;2.65;;;;;;;9.72;97.98;100563.28;5014109;28;20486;-62
2021/09/14 05:00:46;;;;;;;5.63;2.53;;;;;;;9.83;98.51;100565.03;5014285;28;20052;-62
2021/09/14 05:03:31;;;;;;;5.18;3.22;;;;;;;10.00;97.78;100564.41;5014375;28;20073;-62
2021/09/14 05:06:17;;;;;;;5.97;3.33;;;;;;;10.01;97.28;100566.13;5013928;28;20119;-63
2021/09/14 05:09:02;;;;;;;3.93;2.30;;;;;;;9.91;97.38;100566.06;5014333;28;20634;-64
2021/09/14 05:11:48;;;;;;;5.75;3.17;;;;;;;9.89;96.98;100565.34;5014377;28;20784;-63
2021/09/14 05:14:33;;;;;;;4.05;2.58;;;;;;;9.90;97.29;100563.50;5013922;28;20060;-61
2021/09/14 05:17:19;;;;;;;5.10;2.93;;;;;;;9.93;97.27;100558.72;5013599;28;20519;-62
2021/09/14 05:20:06;;;;;;;9.65;3.58;;;;;;;9.97;97.51;100556.66;5014187;28;20288;-63
2021/09/14 05:23:10;;;;;;;5.00;2.92;;;;;;;10.05;97.41;100551.44;5013620;28;20056;-62
2021/09/14 05:25:55;;;;;;;4.15;2.88;;;;;;;10.11;97.22;100561.66;5013999;28;20120;-62
2021/09/14 05:28:43;;;;;;;6.07;2.15;;;;;;;10.15;96.73;100560.41;5013059;28;20060;-64
2021/09/14 05:31:27;;;;;;;4.45;2.70;;;;;;;10.18;96.69;100565.53;5014267;28;20072;-62
2021/09/14 05:34:13;;;;;;;5.90;2.60;;;;;;;10.23;96.81;100563.31;5013515;28;20061;-62
2021/09/14 05:36:58;;;;;;;4.90;2.72;;;;;;;10.33;96.68;100567.88;5013508;28;20053;-62
2021/09/14 05:39:44;;;;;;;6.25;3.13;;;;;;;10.41;96.10;100554.59;5013586;28;20061;-62
2021/09/14 05:42:29;;;;;;;5.05;2.80;;;;;;;10.52;96.35;100554.50;5013243;28;20427;-63
2021/09/14 05:45:15;;;;;;;4.10;2.38;;;;;;;10.64;95.84;100561.47;5013567;28;20061;-63
2021/09/14 05:48:00;;;;;;;4.20;2.70;;;;;;;10.76;95.68;100563.06;5013195;28;20057;-62
2021/09/14 05:50:46;;;;;;;6.30;3.47;;;;;;;10.88;95.52;100566.47;5013324;28;20124;-62
2021/09/14 05:53:31;;;;;;;6.63;2.78;;;;;;;10.94;95.24;100567.78;5013113;28;20053;-61
2021/09/14 05:56:16;;;;;;;8.88;3.40;;;;;;;11.05;95.07;100564.97;5012807;28;20061;-62
2021/09/14 05:59:01;;;;;;;4.40;2.67;;;;;;;11.19;94.87;100567.25;5013231;28;20069;-63
2021/09/14 06:01:47;;;;;;;5.80;2.97;;;;;;;11.34;94.26;100567.66;5013180;28;20099;-63
2021/09/14 06:04:32;;;;;;;4.25;3.10;;;;;;;11.52;94.19;100575.88;5001695;28;20057;-61
2021/09/14 06:07:19;;;;;;;7.82;4.43;;;;;;;11.68;93.58;100568.91;5032203;28;20161;-62
2021/09/14 06:10:05;;;;;;;10.05;5.75;;;;;;;11.94;94.25;100571.03;5032502;28;20183;-62
2021/09/14 06:12:50;;;;;;;14.05;6.47;;;;;;;12.16;94.19;100577.91;5032646;28;20522;-62
2021/09/14 06:15:34;;;;;;;10.60;5.60;;;;;;;12.34;92.89;100575.31;5032449;28;20103;-63
2021/09/14 06:18:21;;;;;;;10.20;5.70;;;;;;;12.46;92.98;100580.38;5032815;28;20119;-62
2021/09/14 06:21:06;;;;;;;9.27;4.82;;;;;;;12.62;92.28;100590.50;5030727;28;20199;-63
2021/09/14 06:23:51;;;;;;;10.38;5.70;;;;;;;12.74;92.04;100588.44;5013089;28;20057;-63
2021/09/14 06:26:36;;;;;;;8.52;4.60;;;;;;;12.87;91.70;100588.94;5011793;28;20053;-62
2021/09/14 06:29:21;;;;;;;10.60;5.35;;;;;;;13.00;90.85;100592.13;5012990;28;20057;-60
2021/09/14 06:32:07;;;;;;;9.00;4.80;;;;;;;13.12;90.61;100598.16;5012587;28;20123;-61
2021/09/14 06:34:54;;;;;;;7.70;5.22;;;;;;;13.24;89.25;100590.72;5012476;28;20049;-60
2021/09/14 06:37:39;;;;;;;10.70;6.05;;;;;;;13.33;89.16;100584.41;5011613;28;20076;-61
2021/09/14 06:40:24;;;;;;;7.45;5.00;;;;;;;13.45;88.37;100588.56;5012326;28;20119;-60
2021/09/14 06:43:09;;;;;;;9.83;5.13;;;;;;;13.56;88.26;100595.59;5012173;28;20057;-63
2021/09/14 06:45:54;;;;;;;11.35;5.57;;;;;;;13.66;87.57;100596.34;5012090;28;20123;-60
2021/09/14 06:48:39;;;;;;;7.05;5.00;;;;;;;13.78;87.44;100594.25;5012200;28;20111;-61
2021/09/14 06:51:25;;;;;;;12.07;5.18;;;;;;;13.87;85.63;100599.56;5011831;28;20080;-62
2021/09/14 06:54:10;;;;;;;8.07;4.63;;;;;;;13.99;86.66;100592.91;5011882;28;20411;-61
2021/09/14 06:56:55;;;;;;;14.48;5.45;;;;;;;14.12;83.90;100587.09;5011862;28;20550;-61
2021/09/14 06:59:40;;;;;;;9.73;4.47;;;;;;;14.21;85.17;100591.56;5011779;28;20076;-60
2021/09/14 07:02:25;;;;;;;9.63;4.80;;;;;;;14.33;83.75;100584.88;5012102;28;20057;-63
2021/09/14 07:05:11;;;;;;;7.65;4.47;;;;;;;14.44;82.89;100588.28;5011849;28;20519;-64
2021/09/14 07:07:59;;;;;;;8.30;4.95;;;;;;;14.50;83.30;100584.97;5011360;28;20265;-62
2021/09/14 07:10:43;;;;;;;5.53;4.18;;;;;;;14.62;83.44;100575.59;5011678;28;20562;-62
2021/09/14 07:13:28;;;;;;;10.85;4.72;;;;;;;14.77;81.93;100575.81;5011498;28;20064;-64
2021/09/14 07:16:13;;;;;;;7.15;4.93;;;;;;;14.89;81.66;100579.91;5011202;28;20057;-62
2021/09/14 07:18:58;;;;;;;9.93;5.00;;;;;;;14.94;79.99;100582.97;5011644;28;20126;-62
2021/09/14 07:21:43;;;;;;;8.63;5.47;;;;;;;15.11;80.38;100578.44;5011501;28;20073;-63
2021/09/14 07:24:30;;;;;;;8.77;5.32;;;;;;;15.26;79.77;100565.13;5011307;28;20150;-61
2021/09/14 07:27:15;;;;;;;11.20;6.47;;;;;;;15.33;78.65;100569.72;5011013;28;20061;-64
2021/09/14 07:30:00;;;;;;;10.02;6.30;;;;;;;15.53;79.14;100569.41;5011223;28;20064;-64
2021/09/14 07:32:45;;;;;;;10.52;4.93;;;;;;;15.73;78.37;100568.91;5011466;28;20060;-64
2021/09/14 07:35:30;;;;;;;7.40;4.57;;;;;;;15.85;78.00;100560.44;5010929;28;20407;-62
2021/09/14 07:38:15;;;;;;;11.65;4.43;;;;;;;15.94;77.80;100557.56;5011630;28;20056;-61
2021/09/14 07:41:02;;;;;;;8.13;3.40;;;;;;;15.99;78.05;100560.63;5011009;28;20057;-63
2021/09/14 07:43:47;;;;;;;6.57;4.63;;;;;;;16.03;75.97;100553.84;5010833;28;20053;-62
2021/09/14 07:46:32;;;;;;;10.15;4.55;;;;;;;16.18;77.04;100555.84;5010668;28;20060;-62
2021/09/14 07:49:17;;;;;;;7.18;4.47;;;;;;;16.35;76.50;100557.50;5011256;28;20053;-62
2021/09/14 07:52:02;;;;;;;6.75;4.30;;;;;;;16.47;76.32;100552.53;5011214;28;20107;-62
2021/09/14 07:54:47;;;;;;;13.00;4.75;;;;;;;16.48;75.38;100546.09;5011166;28;20408;-61
2021/09/14 07:57:34;;;;;;;11.15;4.70;;;;;;;16.53;75.61;100560.81;5010771;28;20103;-61
2021/09/14 08:00:19;;;;;;;5.43;3.58;;;;;;;16.58;75.26;100555.72;5011446;28;20107;-62
2021/09/14 08:03:04;;;;;;;5.90;4.32;;;;;;;16.47;75.38;100574.22;5007158;28;20151;-62
2021/09/14 08:05:49;;;;;;;6.65;4.63;;;;;;;16.32;75.00;100571.38;5008739;28;20073;-63
2021/09/14 08:08:34;;;;;;;6.90;3.95;;;;;;;16.48;75.46;100567.78;5011495;28;20088;-61
2021/09/14 08:11:19;;;;;;;7.43;4.63;;;;;;;16.67;75.06;100567.34;5011308;28;20188;-64
2021/09/14 08:14:05;;;;;;;8.60;4.03;;;;;;;16.78;74.83;100566.16;5011031;28;20435;-62
2021/09/14 08:16:51;;;;;;;9.48;3.88;;;;;;;17.00;74.26;100572.66;5010636;28;20060;-63
2021/09/14 08:19:41;;;;;;;6.28;4.13;;;;;;;17.02;73.75;100571.44;5011177;28;20061;-61
2021/09/14 08:22:26;;;;;;;6.70;4.45;;;;;;;16.96;73.69;100574.88;5010793;28;20570;-63
2021/09/14 08:25:12;;;;;;;7.13;4.25;;;;;;;17.14;73.30;100569.19;5010839;28;20108;-62
2021/09/14 08:27:57;;;;;;;5.68;3.78;;;;;;;17.21;73.24;100571.00;5010800;28;20064;-61
2021/09/14 08:30:43;;;;;;;7.25;4.20;;;;;;;17.37;73.38;100563.78;5011134;28;20085;-62
2021/09/14 08:33:29;;;;;;;7.82;3.90;;;;;;;17.33;72.61;100570.59;5010598;28;20060;-63
2021/09/14 08:36:14;;;;;;;9.82;4.65;;;;;;;17.34;72.75;100561.44;5010535;28;20184;-63
2021/09/14 08:38:59;;;;;;;8.45;4.03;;;;;;;17.42;73.07;100561.38;5010884;28;20443;-62
2021/09/14 08:41:45;;;;;;;7.72;4.20;;;;;;;17.47;72.36;100558.97;5010745;28;20120;-63
2021/09/14 08:44:30;;;;;;;6.03;3.92;;;;;;;17.56;71.99;100568.72;5010663;28;20131;-61
2021/09/14 08:47:16;;;;;;;8.02;4.35;;;;;;;17.74;73.04;100561.13;5010990;28;20390;-62
2021/09/14 08:50:01;;;;;;;9.98;5.28;;;;;;;17.97;71.58;100555.66;5010093;28;20569;-62
2021/09/14 08:52:46;;;;;;;5.60;4.03;;;;;;;18.11;71.62;100552.16;5010729;28;20127;-64
2021/09/14 08:55:33;;;;;;;7.32;3.92;;;;;;;18.22;69.79;100553.53;5010333;28;20057;-63
2021/09/14 08:58:18;;;;;;;6.25;3.67;;;;;;;18.31;70.40;100559.72;5010239;28;20057;-62
2021/09/14 09:01:03;;;;;;;7.43;3.92;;;;;;;18.37;69.12;100557.13;5010875;28;20359;-62
2021/09/14 09:03:56;;;;;;;10.02;4.20;;;;;;;18.44;69.20;100556.34;5013792;28;20057;-63
2021/09/14 09:06:42;;;;;;;8.40;3.70;;;;;;;18.57;68.33;100551.94;5013591;28;20068;-63
2021/09/14 09:09:27;;;;;;;6.20;3.90;;;;;;;18.63;67.50;100556.66;5013981;28;20519;-63
2021/09/14 09:12:12;;;;;;;6.78;4.35;;;;;;;18.81;68.03;100564.41;5013572;28;20143;-63
2021/09/14 09:14:59;;;;;;;6.90;4.32;;;;;;;18.77;68.50;100557.69;5013868;28;20057;-60
2021/09/14 09:17:46;;;;;;;7.10;4.50;;;;;;;18.80;68.15;100562.72;5013252;28;20061;-60
2021/09/14 09:20:33;;;;;;;8.73;4.13;;;;;;;18.77;67.95;100568.56;5013618;28;20053;-61
2021/09/14 09:23:21;;;;;;;7.43;4.00;;;;;;;19.03;67.65;100568.03;5013866;28;20053;-63
2021/09/14 09:26:08;;;;;;;6.47;4.20;;;;;;;18.95;67.57;100560.84;5013227;28;20056;-62
2021/09/14 09:28:58;;;;;;;9.13;4.13;;;;;;;19.07;67.36;100563.09;5013393;28;20184;-63
2021/09/14 09:31:45;;;;;;;7.90;4.00;;;;;;;19.12;65.97;100557.91;5013616;28;20053;-62
2021/09/14 09:34:30;;;;;;;9.15;3.80;;;;;;;19.33;67.84;100552.47;5013681;28;20412;-62
2021/09/14 09:37:17;;;;;;;11.13;3.67;;;;;;;19.69;65.85;100557.88;5012535;28;20119;-61
2021/09/14 09:40:02;;;;;;;7.10;3.88;;;;;;;19.32;65.79;100553.53;5013479;28;20073;-62
2021/09/14 09:42:49;;;;;;;5.35;3.42;;;;;;;19.56;66.27;100558.59;5013244;28;20057;-63
2021/09/14 09:45:41;;;;;;;4.85;3.78;;;;;;;19.75;65.13;100550.78;5012862;28;20120;-62
2021/09/14 09:48:26;;;;;;;6.38;3.28;;;;;;;19.80;64.00;100545.63;5013502;28;20127;-62
2021/09/14 09:51:11;;;;;;;5.83;3.77;;;;;;;19.93;63.10;100540.28;5026634;22;20120;-63
2021/09/14 09:53:59;;;;;;;11.20;4.00;;;;;;;19.85;64.69;100538.53;5013277;28;20346;-65
2021/09/14 09:56:45;;;;;;;6.65;3.00;;;;;;;20.17;62.02;100538.13;5012986;28;20057;-62
2021/09/14 09:59:30;;;;;;;6.95;2.83;;;;;;;20.07;63.21;100533.03;5013717;28;20065;-62
2021/09/14 10:02:19;;;;;;;6.18;3.38;;;;;;;19.99;61.79;100525.84;5013763;28;20092;-65
2021/09/14 10:05:08;;;;;;;4.35;3.20;;;;;;;20.14;61.61;100529.31;5013179;28;20049;-65
2021/09/14 10:07:54;;;;;;;8.82;3.38;;;;;;;19.95;61.89;100530.03;5013227;28;20132;-62
2021/09/14 10:10:42;;;;;;;3.90;2.90;;;;;;;20.01;60.75;100517.47;5013615;28;20061;-64
2021/09/14 10:13:32;;;;;;;6.78;3.35;;;;;;;19.98;61.89;100524.16;5012813;28;20201;-61
2021/09/14 10:16:23;;;;;;;6.30;3.60;;;;;;;20.15;60.70;100522.84;5012873;28;20073;-61
2021/09/14 10:19:10;;;;;;;4.30;3.45;;;;;;;20.61;63.38;100526.91;5013411;28;20562;-64
2021/09/14 10:22:03;;;;;;;5.32;2.72;;;;;;;20.68;59.06;100520.41;5013493;28;20418;-64
2021/09/14 10:24:51;;;;;;;5.15;2.88;;;;;;;20.36;59.82;100516.47;5013108;28;20108;-63
2021/09/14 10:27:38;;;;;;;4.07;2.90;;;;;;;20.73;59.69;100517.94;5013066;28;20053;-64
2021/09/14 10:30:25;;;;;;;5.57;3.72;;;;;;;20.94;58.89;100524.28;5013063;28;20081;-62
2021/09/14 10:33:18;;;;;;;;;;;;;;;20.81;57.75;100514.16;5013609;28;20052;-64
2021/09/14 10:36:13;;;;;;;4.50;3.05;;;;;;;20.25;57.78;100517.03;5012302;28;19928;-62
2021/09/14 10:38:59;;;;;;;4.88;3.17;;;;;;;20.58;58.18;100519.94;5013260;28;20194;-66
2021/09/14 10:41:45;;;;;;;;;;;;;;;20.88;56.13;100514.19;5013819;28;20060;-65
2021/09/14 10:44:33;;;;;;;4.20;3.33;;;;;;;20.94;56.73;100516.94;5012894;28;19928;-66
2021/09/14 10:47:19;;;;;;;6.70;3.42;;;;;;;20.97;56.66;100516.53;5012443;28;20116;-62
2021/09/14 10:50:05;;;;;;;9.45;3.40;;;;;;;21.04;56.50;100505.63;5012909;28;20216;-64
2021/09/14 10:52:57;;;;;;;4.95;3.60;;;;;;;20.87;58.08;100501.59;5012388;28;20135;-64
2021/09/14 10:55:52;;;;;;;8.52;2.97;;;;;;;20.61;58.47;100507.81;5012516;28;20056;-66
2021/09/14 10:58:42;;;;;;;7.15;3.53;;;;;;;20.99;59.70;100508.16;5012468;28;20096;-64
2021/09/14 11:01:32;;;;;;;8.45;3.70;;;;;;;20.83;56.60;100508.50;5012450;28;20077;-64
2021/09/14 11:04:26;;;;;;;11.30;3.40;;;;;;;20.55;56.79;100501.25;5012864;28;20133;-63
2021/09/14 11:07:11;;;;;;;6.32;3.80;;;;;;;21.02;55.90;100510.47;5012778;28;20144;-62
2021/09/14 11:10:00;;;;;;;6.72;3.45;;;;;;;21.15;56.40;100496.84;5012972;28;20057;-64
2021/09/14 11:12:46;;;;;;;7.35;3.50;;;;;;;21.68;54.56;100496.94;5012452;28;20129;-68
2021/09/14 11:15:31;;;;;;;6.75;3.60;;;;;;;21.68;55.29;100493.38;5012907;28;20056;-60
2021/09/14 11:18:24;;;;;;;4.85;3.50;;;;;;;21.15;56.04;100494.13;5012515;28;20541;-65
2021/09/14 11:21:12;;;;;;;7.50;3.80;;;;;;;20.95;57.69;100504.97;5012945;28;20250;-65
2021/09/14 11:23:56;;;;;;;4.32;3.10;;;;;;;21.24;56.58;100489.31;5012703;28;20531;-63
2021/09/14 11:26:41;;;;;;;6.97;3.40;;;;;;;21.15;56.00;100488.66;5012219;28;20109;-63
2021/09/14 11:29:26;;;;;;;6.50;3.65;;;;;;;21.10;54.67;100484.88;5012122;28;20056;-63
2021/09/14 11:32:15;;;;;;;8.90;3.17;;;;;;;21.34;54.76;100486.22;5012174;28;20064;-66
2021/09/14 11:35:08;;;;;;;4.40;3.33;;;;;;;21.52;54.52;100475.50;5011816;28;20060;-63
2021/09/14 11:38:00;;;;;;;5.65;3.47;;;;;;;21.41;54.69;100470.66;5011887;28;20203;-62
2021/09/14 11:40:47;;;;;;;5.85;3.70;;;;;;;21.76;54.56;100474.00;5011319;28;20192;-62
2021/09/14 11:43:35;;;;;;;6.18;3.47;;;;;;;21.92;54.07;100461.81;5011623;28;20120;-55
2021/09/14 11:46:20;;;;;;;4.38;2.88;;;;;;;22.01;53.22;100457.78;5011330;28;20517;-59
2021/09/14 11:49:08;;;;;;;5.93;3.53;;;;;;;22.09;52.78;100457.59;5011246;28;20061;-60
2021/09/14 11:52:00;;;;;;;7.00;3.40;;;;;;;22.12;53.17;100457.16;5011479;28;20065;-61
2021/09/14 11:54:45;;;;;;;5.25;3.25;;;;;;;22.02;52.91;100457.59;5011624;28;20056;-60
2021/09/14 11:57:31;;;;;;;8.88;3.17;;;;;;;21.96;52.88;100454.88;5010914;28;20056;-59
2021/09/14 12:00:17;;;;;;;5.38;3.83;;;;;;;21.77;54.26;100453.84;5011423;28;20118;-55
2021/09/14 12:03:02;;;;;;;7.28;3.45;;;;;;;21.92;53.72;100461.81;5011645;28;20139;-61
2021/09/14 12:05:55;;;;;;;6.43;3.27;;;;;;;21.84;53.08;100460.13;5010453;28;20053;-59
2021/09/14 12:08:43;;;;;;;11.02;3.60;;;;;;;21.85;52.39;100456.34;5011455;28;20291;-58
2021/09/14 12:11:29;;;;;;;6.75;3.20;;;;;;;22.28;54.19;100453.13;5011098;28;20064;-57
2021/09/14 12:14:20;;;;;;;4.60;3.20;;;;;;;22.32;51.65;100449.75;5011582;28;20060;-58
2021/09/14 12:17:06;;;;;;;6.68;2.92;;;;;;;22.46;52.24;100447.78;5010664;28;20097;-57
2021/09/14 12:19:51;;;;;;;6.18;3.08;;;;;;;22.34;52.25;100442.16;5010310;28;20123;-57
2021/09/14 12:22:36;;;;;;;4.87;3.57;;;;;;;22.30;52.62;100449.13;5010733;28;20212;-62
2021/09/14 12:25:22;;;;;;;4.45;3.45;;;;;;;22.29;51.25;100450.19;5010994;28;20192;-62
2021/09/14 12:28:07;;;;;;;4.60;3.40;;;;;;;22.65;51.54;100446.03;5011187;28;20060;-63
2021/09/14 12:30:52;;;;;;;4.68;3.35;;;;;;;22.35;48.46;100440.25;5010942;28;20199;-61
2021/09/14 12:33:37;;;;;;;5.07;3.87;;;;;;;22.48;48.16;100437.47;5011006;28;20053;-63
2021/09/14 12:36:22;;;;;;;5.45;3.72;;;;;;;22.69;48.33;100442.63;5011678;28;20506;-62
2021/09/14 12:39:07;;;;;;;4.95;3.28;;;;;;;22.77;48.09;100427.88;5015222;28;20139;-60
2021/09/14 12:41:53;;;;;;;6.37;3.70;;;;;;;22.64;50.15;100433.41;5015218;28;20507;-58
2021/09/14 12:44:38;;;;;;;4.75;3.28;;;;;;;22.53;51.50;100426.75;5015378;28;20431;-62
2021/09/14 12:47:23;;;;;;;7.82;3.72;;;;;;;22.43;50.40;100424.47;5014372;28;20065;-61
2021/09/14 12:50:09;;;;;;;5.40;3.30;;;;;;;22.59;51.00;100422.28;5015001;28;20065;-58
2021/09/14 12:52:54;;;;;;;5.07;3.33;;;;;;;22.77;49.01;100425.97;5015207;28;20061;-64
2021/09/14 12:55:39;;;;;;;4.60;3.13;;;;;;;22.85;47.47;100419.44;5014599;28;20112;-63
2021/09/14 12:58:25;;;;;;;5.63;3.28;;;;;;;23.07;50.77;100427.28;5015015;28;20128;-61
2021/09/14 13:01:10;;;;;;;5.93;3.40;;;;;;;22.90;49.07;100416.88;5014853;28;20056;-65
2021/09/14 13:03:55;;;;;;;6.57;3.15;;;;;;;22.81;49.55;100415.41;5014372;28;20061;-62
2021/09/14 13:06:40;;;;;;;4.88;3.30;;;;;;;23.00;52.16;100422.72;5014343;28;20061;-63
2021/09/14 13:09:26;;;;;;;5.30;2.88;;;;;;;22.85;49.79;100408.50;5014586;28;20061;-62
2021/09/14 13:12:18;;;;;;;4.65;3.25;;;;;;;22.90;50.03;100403.19;5014244;28;20060;-62
2021/09/14 13:18:08;;;;;;;5.45;3.05;;;;;;;22.77;50.47;100395.03;5014693;28;20093;-61
2021/09/14 13:20:53;;;;;;;6.30;3.35;;;;;;;22.76;49.78;100398.84;5013893;28;20530;-66
2021/09/14 13:23:39;;;;;;;7.90;3.13;;;;;;;22.90;50.25;100394.16;5014383;28;20131;-62
2021/09/14 13:26:24;;;;;;;;;;;;;;;22.73;48.34;100394.66;5014238;28;20168;-62
2021/09/14 13:29:08;;;;;;;5.20;3.40;;;;;;;23.03;51.78;100394.03;5014414;28;19933;-62
2021/09/14 13:31:55;;;;;;;5.10;3.50;;;;;;;22.94;50.54;100401.69;5014074;28;20056;-64
2021/09/14 13:34:40;;;;;;;5.68;2.80;;;;;;;23.63;47.89;100389.75;5014188;28;20057;-64
2021/09/14 13:37:24;;;;;;;4.13;3.30;;;;;;;24.68;45.01;100389.56;5013242;28;20090;-63
2021/09/14 13:40:11;;;;;;;4.50;3.10;;;;;;;25.63;41.87;100388.69;5014461;28;20072;-62
2021/09/14 13:42:57;;;;;;;5.13;3.20;;;;;;;26.61;38.78;100381.47;5014129;28;20469;-56
2021/09/14 13:48:48;;;;;;;3.63;2.50;;;;;;;27.59;36.65;100374.66;5012751;28;20096;-59
2021/09/14 13:51:33;;;;;;;5.22;2.83;;;;;;;28.53;35.62;100372.63;5013772;28;20064;-59